• Join FlightAware (Why Join?)
  • Login
  • US Flag GB Flag 
04:35 EDT


 

Airport Tracker/Info


-or-


 

Live Flight TrackerFlight Track Log ✈ N577XW ✈ 29-Apr-2013 ✈ KTHV - KTUL

Flight Track Log - Related Links

Times and Time Zones

All times are in EDT time to prevent confusion due to time zone crossing. See the N577XW flight status page for this flight to view local times or setup timezone preferences in your user account.

Time Position Orientation Groundspeed Altitude Reporting Facility
EDT Latitude Longitude Course Direction KTS MPH feet Rate Location/Type
17:38 39.9047 -76.9303 218° Southwest 231 266 4,500  Level New York Center
17:39 39.9664 -76.9844 326° Northwest 247 284 7,200 2,400 Climbing New York Center
17:40 39.9758 -77.0856 277° West 263 303 9,400 2,160 Climbing New York Center
17:41 39.9658 -77.1903 263° West 283 326 11,700 2,040 Climbing New York Center
17:42 39.9619 -77.3011 267° West 302 348 13,600 900 Climbing New York Center
17:43 39.8643 -77.6191 218° Southwest  Level FlightAware Approximate
17:44 39.8408 -77.4722 227° Southwest 302 348 14,600  Level Washington Center
17:45 39.7647 -77.5378 214° Southwest 318 366 16,300 1,560 Climbing Washington Center
17:46 39.6864 -77.6031 213° Southwest 329 379 17,800 1,440 Climbing Washington Center
17:47 39.6061 -77.6681 212° Southwest 340 391 19,300 1,380 Climbing Washington Center
17:48 39.5239 -77.7358 212° Southwest 352 405 20,600 1,200 Climbing Washington Center
17:49 39.4392 -77.8031 212° Southwest 352 405 21,800 1,140 Climbing Washington Center
17:50 39.3647 -77.8894 222° Southwest 357 411 22,900 1,080 Climbing Washington Center
17:51 39.3228 -78.0036 245° Southwest 351 404 24,000 1,080 Climbing Washington Center
17:52 39.2767 -78.1225 243° Southwest 361 415 25,100 1,020 Climbing Washington Center
17:53 39.2303 -78.2389 243° Southwest 367 422 26,100 1,080 Climbing Washington Center
17:54 39.1794 -78.3708 244° Southwest 373 429 27,400 1,080 Climbing Washington Center
17:55 39.1328 -78.4869 243° Southwest 373 429 28,300 900 Climbing Washington Center
17:56 39.0842 -78.6053 242° Southwest 373 429 29,200 720 Climbing Washington Center
17:58 39.0064 -78.7470 244° Southwest  Level FlightAware Approximate
17:58 38.9864 -78.8417 244° Southwest 378 435 30,600  Level Washington Center
17:59 38.9369 -78.9622 242° Southwest 378 435 31,400 720 Climbing Washington Center
18:00 38.8878 -79.0853 243° Southwest 378 435 32,100 720 Climbing Washington Center
18:01 38.8403 -79.2058 243° Southwest 378 435 32,900 720 Climbing Washington Center
18:02 38.8197 -79.3381 259° West 378 435 33,600 540 Climbing Washington Center
18:03 38.7925 -79.4725 255° West 378 435 34,000 180 Climbing Washington Center
18:04 38.7692 -79.6097 258° West 394 453 34,000  Level Washington Center
18:05 38.7461 -79.7361 257° West 399 459 34,000  Level Washington Center
18:06 38.7181 -79.8783 256° West 409 471 34,000 240 Level Washington Center
18:07 38.6922 -80.0178 257° West 409 471 34,600 720 Climbing Washington Center
18:09 38.6539 -80.2097 256° West 387 445 35,800 540 Climbing Indianapolis Center
18:10 38.6303 -80.3417 257° West 380 437 36,000 60 Climbing Indianapolis Center
18:11 38.6042 -80.4744 256° West 385 443 36,000  Level Indianapolis Center
18:12 38.5744 -80.6369 257° West 392 451 36,000  Level Indianapolis Center
18:13 38.5483 -80.7731 256° West 393 452 36,000  Level Indianapolis Center
18:14 38.5214 -80.9097 256° West 396 456 36,000  Level Indianapolis Center
18:15 38.4947 -81.0475 256° West 397 457 36,000  Level Indianapolis Center
18:16 38.4661 -81.1847 255° West 397 457 36,100 300 Climbing Indianapolis Center
18:17 38.4394 -81.3214 256° West 394 453 36,700 600 Climbing Indianapolis Center
18:18 38.4136 -81.4536 256° West 382 440 37,400 480 Climbing Indianapolis Center
18:19 38.3883 -81.5844 256° West 378 435 37,800 240 Climbing Indianapolis Center
18:20 38.3614 -81.7150 255° West 377 434 38,000 60 Climbing Indianapolis Center
18:21 38.3461 -81.8728 263° West 371 427 38,000  Level Indianapolis Center
18:22 38.3403 -82.0092 267° West 381 438 38,000  Level Indianapolis Center
18:23 38.3336 -82.1442 266° West 381 438 38,000  Level Indianapolis Center
18:24 38.3281 -82.2803 267° West 384 442 38,000  Level Indianapolis Center
18:25 38.3192 -82.4164 265° West 385 443 38,000  Level Indianapolis Center
18:26 38.3122 -82.5564 266° West 387 445 38,000  Level Indianapolis Center
18:27 38.3031 -82.7156 266° West 386 444 38,000  Level Indianapolis Center
18:28 38.2939 -82.8519 265° West 388 447 38,000  Level Indianapolis Center
18:29 38.2819 -82.9892 264° West 390 449 38,000  Level Indianapolis Center
18:30 38.2669 -83.1231 262° West 384 442 38,000  Level Indianapolis Center
18:31 38.2539 -83.2600 263° West 388 447 38,000  Level Indianapolis Center
18:32 38.2367 -83.4183 262° West 387 445 38,000  Level Indianapolis Center
18:33 38.2219 -83.5567 262° West 393 452 38,000  Level Indianapolis Center
18:35 38.2064 -83.6942 262° West 394 453 38,000  Level Indianapolis Center
18:36 38.1911 -83.8314 262° West 396 456 38,000  Level Indianapolis Center
18:37 38.1753 -83.9706 262° West 397 457 38,000  Level Indianapolis Center
18:38 38.1603 -84.1083 262° West 395 455 38,000  Level Indianapolis Center
18:39 38.1397 -84.2719 261° West 401 461 38,000  Level Indianapolis Center
18:40 38.1247 -84.4094 262° West 397 457 38,000  Level Indianapolis Center
18:41 38.1083 -84.5475 261° West 395 455 38,000  Level Indianapolis Center
18:42 38.0936 -84.6819 262° West 390 449 38,000  Level Indianapolis Center
18:43 38.0772 -84.8203 261° West 392 451 38,000  Level Indianapolis Center
18:44 38.0572 -84.9814 261° West 394 453 38,000  Level Indianapolis Center
18:45 38.0400 -85.1169 261° West 389 448 38,000  Level Indianapolis Center
18:46 38.0250 -85.2375 261° West 391 450 38,000  Level Indianapolis Center
18:47 38.0053 -85.4011 261° West 389 448 38,000  Level Indianapolis Center
18:48 37.9886 -85.5392 261° West 394 453 38,000  Level Indianapolis Center
18:49 37.9717 -85.6753 261° West 390 449 38,000  Level Indianapolis Center
18:50 37.9547 -85.8131 261° West 393 452 38,000  Level Indianapolis Center
18:51 37.9367 -85.9511 261° West 396 456 38,000  Level Indianapolis Center
18:52 37.9192 -86.0853 261° West 387 445 38,000  Level Indianapolis Center
18:53 37.9014 -86.2222 261° West 391 450 38,000  Level Indianapolis Center
18:54 37.8831 -86.3578 260° West 389 448 38,000  Level Indianapolis Center
18:55 37.8653 -86.4942 261° West 390 449 38,000  Level Indianapolis Center
18:56 37.8428 -86.6583 260° West 390 449 38,000  Level Indianapolis Center
18:57 37.8239 -86.7944 260° West 390 449 38,000  Level Indianapolis Center
18:58 37.8050 -86.9311 260° West 392 451 38,000  Level Indianapolis Center
18:59 37.7861 -87.0683 260° West 393 452 38,000  Level Indianapolis Center
19:00 37.7653 -87.2150 260° West 391 450 38,000  Level Indianapolis Center
19:01 37.7458 -87.3519 260° West 394 453 38,000  Level Indianapolis Center
19:02 37.7264 -87.4872 260° West 390 449 38,000  Level Indianapolis Center
19:03 37.7064 -87.6239 260° West 393 452 38,000  Level Indianapolis Center
19:04 37.6875 -87.7606 260° West 393 452 38,000  Level Indianapolis Center
19:05 37.6675 -87.8961 259° West 390 449 38,000  Level Indianapolis Center
19:07 37.6469 -88.0331 259° West 393 452 38,000  Level Indianapolis Center
19:08 37.6275 -88.1692 260° West 393 452 38,000  Level Indianapolis Center
19:08 37.6219 -88.2389 264° West 396 456 38,000  Level Memphis Center
19:09 37.6039 -88.3217 255° West 393 452 38,000  Level Indianapolis Center
19:09 37.5994 -88.3756 264° West 396 456 38,000  Level Memphis Center
19:10 37.5806 -88.5094 260° West 396 456 38,000  Level Memphis Center
19:12 37.5425 -88.7278 258° West 393 452 38,000  Level Indianapolis Center
19:12 37.5325 -88.7914 259° West 391 450 38,000  Level Kansas City Center
19:13 37.5103 -88.9256 258° West 392 451 38,000  Level Kansas City Center
19:14 37.4908 -89.0603 260° West 393 452 38,000  Level Kansas City Center
19:15 37.4692 -89.1967 259° West 395 455 38,000  Level Kansas City Center
19:16 37.4431 -89.3603 259° West 397 457 38,000  Level Kansas City Center
19:17 37.4214 -89.4964 259° West 398 458 38,000  Level Kansas City Center
19:18 37.3986 -89.6317 258° West 398 458 38,000  Level Kansas City Center
19:19 37.3769 -89.7681 259° West 398 458 38,000  Level Kansas City Center
19:20 37.3542 -89.9036 258° West 398 458 38,000  Level Kansas City Center
19:21 37.3308 -90.0408 258° West 400 460 38,000  Level Kansas City Center
19:22 37.3039 -90.2044 258° West 401 461 38,000  Level Kansas City Center
19:23 37.2806 -90.3419 258° West 402 463 38,000  Level Kansas City Center
19:24 37.2569 -90.4814 258° West 406 467 38,000  Level Kansas City Center
19:26 37.2333 -90.6183 258° West 405 466 38,000  Level Kansas City Center
19:27 37.2214 -90.7736 265° West 406 467 38,000  Level Kansas City Center
19:28 37.2053 -90.9133 262° West 401 461 38,000  Level Kansas City Center
19:29 37.1886 -91.0561 262° West 410 472 38,000  Level Kansas City Center
19:30 37.1736 -91.1958 262° West 407 468 38,000  Level Kansas City Center
19:31 37.1586 -91.3361 262° West 406 467 38,000  Level Kansas City Center
19:32 37.1392 -91.5056 262° West 407 468 38,000  Level Kansas City Center
19:33 37.1244 -91.6464 263° West 407 468 38,000  Level Kansas City Center
19:34 37.1078 -91.7856 262° West 405 466 38,000  Level Kansas City Center
19:35 37.0919 -91.9253 262° West 403 464 38,000  Level Kansas City Center
19:36 37.0756 -92.0672 262° West 408 470 38,000  Level Kansas City Center
19:37 37.0586 -92.2058 261° West 405 466 38,000  Level Kansas City Center
19:38 37.0439 -92.3461 263° West 404 465 38,000  Level Kansas City Center
19:39 37.0272 -92.4844 261° West 403 464 38,000  Level Kansas City Center
19:40 37.0064 -92.6511 261° West 402 463 38,000  Level Kansas City Center
19:41 36.9894 -92.7864 261° West 395 455 38,000  Level Kansas City Center
19:42 36.9725 -92.9281 262° West 403 464 38,000  Level Kansas City Center
19:43 36.9550 -93.0664 261° West 403 464 38,000  Level Kansas City Center
19:44 36.9378 -93.2064 261° West 405 466 38,000  Level Kansas City Center
19:45 36.9200 -93.3458 261° West 405 466 38,000  Level Kansas City Center
19:46 36.9019 -93.4822 261° West 401 461 38,000 -60 Level Kansas City Center
19:47 36.8856 -93.6233 262° West 404 465 37,900 -540 Descending Kansas City Center
19:48 36.8625 -93.7861 260° West 402 463 37,000 -480 Descending Kansas City Center
19:49 36.8444 -93.9206 261° West 396 456 37,000 -780 Level Kansas City Center
19:50 36.8264 -94.0575 261° West 397 457 35,400 -1,800 Descending Kansas City Center
19:51 36.8086 -94.1942 261° West 399 459 33,300 -2,040 Descending Kansas City Center
19:52 36.7903 -94.3306 261° West 399 459 31,200 -2,040 Descending Kansas City Center
19:53 36.7711 -94.4661 260° West 397 457 29,200 -2,220 Descending Kansas City Center
19:54 36.7436 -94.6164 257° West 375 432 26,700 -2,280 Descending Kansas City Center
19:55 36.6961 -94.7211 241° Southwest 348 400 24,600 -2,040 Descending Kansas City Center
19:57 36.6514 -94.8250 242° Southwest 343 395 22,600 -1,560 Descending Kansas City Center
19:58 36.6103 -94.9286 244° Southwest 335 386 21,400 -1,620 Descending Kansas City Center
19:59 36.5672 -95.0275 242° Southwest 329 379 19,300 -2,460 Descending Kansas City Center
19:59 36.5453 -95.0789 242° Southwest 309 356 17,800 -2,880 Descending Kansas City Center
20:00 36.5128 -95.1589 243° Southwest 283 326 15,500 -2,280 Descending Kansas City Center
20:01 36.4922 -95.2072 242° Southwest 291 335 14,200 -2,400 Descending Kansas City Center
20:02 36.4622 -95.3294 253° West 306 352 11,300 -2,520 Descending Kansas City Center
20:03 36.4456 -95.4197 257° West 280 322 9,000 -2,280 Descending Kansas City Center
20:04 36.4219 -95.5272 255° West 258 297 6,400 -1,980 Descending Kansas City Center
20:05 36.4114 -95.5906 258° West 263 303 5,000 -1,380 Descending Kansas City Center
20:06 36.3964 -95.6936 260° West 257 296 3,800 -1,020 Descending Kansas City Center
20:07 36.3836 -95.7781 259° West 253 291 2,900 -660 Descending Kansas City Center
20:08 36.3567 -95.8517 246° West 244 281 2,500 -420 Descending Kansas City Center
20:09 36.3042 -95.8936 213° Southwest 233 268 2,100 -540 Descending Kansas City Center
20:10 36.2403 -95.8989 184° South 139 160 1,300 -600 Descending Kansas City Center
20:11 36.2194 -95.8978 178° South 152 175 900 -480 Descending Kansas City Center
20:13 36.1984 -95.8881 204° Southwest  Level Estimated
20:20 36.1984 -95.8881 204° Southwest  Level Estimated